createdAt,value
2022-10-04T00:04:19.654Z,85.1
2022-10-04T00:19:29.246Z,85
2022-10-04T00:34:39.082Z,85
2022-10-04T00:49:48.988Z,84.9
2022-10-04T01:04:59.344Z,85
2022-10-04T01:20:12.352Z,85.1
2022-10-04T01:35:22.271Z,85.1
2022-10-04T01:50:31.137Z,85.1
2022-10-04T02:05:45.438Z,85
2022-10-04T02:20:54.912Z,85
2022-10-04T02:36:08.366Z,85.2
2022-10-04T02:51:21.053Z,85.5
2022-10-04T03:06:29.995Z,85.7
2022-10-04T03:21:42.024Z,85.7
2022-10-04T03:36:52.759Z,85.7
2022-10-04T03:52:05.103Z,85.6
2022-10-04T04:07:13.950Z,85.7
2022-10-04T04:22:23.702Z,85.8
2022-10-04T04:37:33.066Z,86
2022-10-04T04:52:42.884Z,86.1
2022-10-04T05:07:52.627Z,86.1
2022-10-04T05:23:02.462Z,86.1
2022-10-04T05:38:12.030Z,86
2022-10-04T05:53:21.904Z,86
2022-10-04T06:08:33.395Z,85.9
2022-10-04T06:23:43.303Z,85.8
2022-10-04T06:38:52.838Z,84.6
2022-10-04T06:54:02.011Z,85.5
2022-10-04T07:09:13.524Z,85.1
2022-10-04T07:24:23.159Z,84.9
2022-10-04T07:39:32.049Z,84.8
2022-10-04T07:54:42.267Z,84.7
2022-10-04T08:09:52.486Z,84.6
2022-10-04T08:25:01.724Z,84.1
2022-10-04T08:40:14.211Z,83.5
2022-10-04T08:55:24.639Z,83.5
2022-10-04T09:10:34.327Z,83.3
2022-10-04T09:25:43.919Z,83
2022-10-04T09:40:53.839Z,82.5
2022-10-04T09:56:04.011Z,82
2022-10-04T10:11:13.555Z,82.1
2022-10-04T10:26:23.303Z,81.7
2022-10-04T10:41:32.813Z,81.1
2022-10-04T10:56:46.732Z,81
2022-10-04T11:11:56.795Z,80.4
2022-10-04T11:27:08.808Z,79.7
2022-10-04T11:42:18.754Z,78.9
2022-10-04T11:57:30.244Z,76.3
2022-10-04T12:12:41.370Z,72.4
2022-10-04T12:27:50.381Z,71.7
2022-10-04T12:43:00.203Z,73.1
2022-10-04T12:58:09.849Z,72.5
2022-10-04T13:13:18.954Z,72.6
2022-10-04T13:28:28.992Z,71.5
2022-10-04T13:43:39.336Z,65.3
2022-10-04T13:58:48.461Z,71.3
2022-10-04T14:13:57.152Z,73.4
2022-10-04T14:29:06.758Z,74.2
2022-10-04T14:44:16.160Z,74.8
2022-10-04T14:59:25.524Z,74.8
2022-10-04T15:14:35.062Z,75
2022-10-04T15:29:44.651Z,75.5
2022-10-04T15:44:54.735Z,75.8
2022-10-04T16:00:04.207Z,76
2022-10-04T16:15:13.887Z,76.3
2022-10-04T16:30:29.568Z,76.7
2022-10-04T16:45:39.498Z,77.2
2022-10-04T17:00:49.550Z,77.5
2022-10-04T17:15:59.592Z,78
2022-10-04T17:31:09.016Z,78.5
2022-10-04T17:46:18.839Z,78.7
2022-10-04T18:01:28.484Z,79
2022-10-04T18:16:38.125Z,79.1
2022-10-04T18:31:47.648Z,79.1
2022-10-04T18:46:57.888Z,79.2
2022-10-04T19:02:09.955Z,79.2
2022-10-04T19:17:19.251Z,79.2
2022-10-04T19:32:28.807Z,79.2
2022-10-04T19:47:38.446Z,79.4
2022-10-04T20:02:49.955Z,79.5
2022-10-04T20:17:59.604Z,79.5
2022-10-04T20:33:09.339Z,79.6
2022-10-04T20:48:19.435Z,79.9
2022-10-04T21:03:29.537Z,79.9
2022-10-04T21:18:39.272Z,79.8
2022-10-04T21:33:48.941Z,79.7
2022-10-04T21:48:58.212Z,79.7
2022-10-04T22:04:07.672Z,79.7
2022-10-04T22:19:16.502Z,79.6
2022-10-04T22:34:26.692Z,79.7
2022-10-04T22:49:35.877Z,79.9
2022-10-04T23:04:45.346Z,81.2
2022-10-04T23:19:54.796Z,80.2
2022-10-04T23:35:04.619Z,80.2
2022-10-04T23:50:14.060Z,80.3
